createdAt,value
2017-11-11T00:00:58.837Z,81.25
2017-11-11T00:03:27.629Z,81.58
2017-11-11T00:05:56.345Z,81.49
2017-11-11T00:08:25.243Z,79.59
2017-11-11T00:10:54.243Z,79.17
2017-11-11T00:13:23.071Z,79.54
2017-11-11T00:15:52.204Z,81.78
2017-11-11T00:18:22.328Z,82.49
2017-11-11T00:20:52.156Z,82.50
2017-11-11T00:23:22.178Z,82.85
2017-11-11T00:25:51.948Z,82.86
2017-11-11T00:28:20.738Z,81.03
2017-11-11T00:30:49.488Z,80.47
2017-11-11T00:33:18.338Z,79.25
2017-11-11T00:35:48.180Z,79.95
2017-11-11T00:38:16.829Z,81.78
2017-11-11T00:40:45.539Z,80.29
2017-11-11T00:43:15.171Z,79.16
2017-11-11T00:45:44.029Z,79.66
2017-11-11T00:48:12.770Z,78.48
2017-11-11T00:50:41.529Z,81.50
2017-11-11T00:53:11.001Z,82.37
2017-11-11T00:55:39.746Z,81.40
2017-11-11T00:58:08.489Z,81.68
2017-11-11T01:00:37.451Z,82.18
2017-11-11T01:03:06.257Z,79.50
2017-11-11T01:05:35.022Z,79.97
2017-11-11T01:08:03.854Z,80.46
2017-11-11T01:10:32.771Z,80.04
2017-11-11T01:13:01.932Z,79.11
2017-11-11T01:15:31.440Z,79.38
2017-11-11T01:18:00.323Z,81.74
2017-11-11T01:20:29.791Z,81.52
2017-11-11T01:22:58.452Z,82.10
2017-11-11T01:25:27.260Z,81.76
2017-11-11T01:27:56.092Z,81.73
2017-11-11T01:30:24.792Z,81.34
2017-11-11T01:32:53.601Z,80.78
2017-11-11T01:35:23.068Z,81.19
2017-11-11T01:37:54.024Z,81.72
2017-11-11T01:40:22.973Z,79.61
2017-11-11T01:42:53.567Z,82.03
2017-11-11T01:45:23.136Z,80.85
2017-11-11T01:47:53.736Z,82.03
2017-11-11T01:50:23.441Z,81.22
2017-11-11T01:52:52.213Z,82.73
2017-11-11T01:55:21.067Z,81.96
2017-11-11T01:57:50.513Z,82.49
2017-11-11T02:00:19.264Z,81.82
2017-11-11T02:02:48.049Z,81.50
2017-11-11T02:05:16.825Z,80.19
2017-11-11T02:07:45.561Z,79.40
2017-11-11T02:10:14.336Z,80.42
2017-11-11T02:12:43.114Z,78.85
2017-11-11T02:15:11.893Z,80.96
2017-11-11T02:17:40.860Z,81.98
2017-11-11T02:20:09.814Z,80.36
2017-11-11T02:22:38.715Z,80.86
2017-11-11T02:25:08.209Z,81.42
2017-11-11T02:27:37.026Z,81.56
2017-11-11T02:30:06.876Z,82.24
2017-11-11T02:32:35.681Z,81.48
2017-11-11T02:35:04.425Z,80.46
2017-11-11T02:37:34.075Z,81.96
2017-11-11T02:40:02.887Z,82.23
2017-11-11T02:42:31.715Z,82.96
2017-11-11T02:45:00.393Z,82.72
2017-11-11T02:47:29.278Z,81.83
2017-11-11T02:49:58.060Z,80.29
2017-11-11T02:52:26.871Z,79.14
2017-11-11T02:54:55.593Z,80.12
2017-11-11T02:57:26.171Z,81.16
2017-11-11T02:59:55.563Z,81.29
2017-11-11T03:02:25.508Z,79.78
2017-11-11T03:04:54.273Z,82.04
2017-11-11T03:07:23.015Z,82.07
2017-11-11T03:09:52.574Z,80.88
2017-11-11T03:12:21.535Z,81.97
2017-11-11T03:14:50.365Z,80.55
2017-11-11T03:17:19.054Z,80.63
2017-11-11T03:19:48.247Z,80.18
2017-11-11T03:22:17.127Z,80.99
2017-11-11T03:24:46.407Z,80.78
2017-11-11T03:27:15.188Z,81.40
2017-11-11T03:29:45.037Z,81.48
2017-11-11T03:32:13.797Z,80.13
2017-11-11T03:34:42.708Z,81.76
2017-11-11T03:37:11.419Z,80.28
2017-11-11T03:39:40.206Z,80.86
2017-11-11T03:42:09.247Z,81.42
2017-11-11T03:44:38.712Z,81.16
2017-11-11T03:47:08.146Z,82.83
2017-11-11T03:49:37.243Z,82.27
2017-11-11T03:52:06.027Z,80.39
2017-11-11T03:54:34.836Z,80.31
2017-11-11T03:57:03.902Z,81.80
2017-11-11T03:59:33.533Z,81.34
2017-11-11T04:02:02.419Z,81.22
2017-11-11T04:04:32.048Z,79.88
2017-11-11T04:07:00.738Z,81.77
2017-11-11T04:09:30.367Z,81.84
2017-11-11T04:11:59.180Z,79.49
2017-11-11T04:14:28.057Z,80.97
2017-11-11T04:16:58.543Z,81.38
2017-11-11T04:19:28.787Z,83.01
2017-11-11T04:21:57.797Z,81.90
2017-11-11T04:24:27.248Z,80.70
2017-11-11T04:26:56.892Z,81.70
2017-11-11T04:29:25.950Z,81.76
2017-11-11T04:31:55.342Z,81.82
2017-11-11T04:34:24.234Z,80.14
2017-11-11T04:36:53.064Z,80.85
2017-11-11T04:39:22.659Z,81.90
2017-11-11T04:41:51.598Z,82.15
2017-11-11T04:44:21.163Z,81.83
2017-11-11T04:46:50.022Z,82.73
2017-11-11T04:49:19.039Z,81.77
2017-11-11T04:51:47.873Z,79.42
2017-11-11T04:54:16.614Z,80.46
2017-11-11T04:56:45.668Z,80.10
2017-11-11T04:59:14.550Z,81.14
2017-11-11T05:01:43.252Z,81.90
2017-11-11T05:04:12.294Z,80.81
2017-11-11T05:06:42.070Z,79.57
2017-11-11T05:09:11.010Z,80.60
2017-11-11T05:11:39.701Z,83.82
2017-11-11T05:14:08.603Z,83.88
2017-11-11T05:16:37.495Z,82.62
2017-11-11T05:19:06.321Z,82.60
2017-11-11T05:21:35.131Z,82.58
2017-11-11T05:24:03.905Z,83.12
2017-11-11T05:26:34.023Z,83.30
2017-11-11T05:29:03.087Z,81.61
2017-11-11T05:31:32.150Z,81.10
2017-11-11T05:34:00.974Z,81.08
2017-11-11T05:36:30.560Z,81.64
2017-11-11T05:38:59.899Z,82.00
2017-11-11T05:41:29.718Z,81.55
2017-11-11T05:43:58.661Z,81.94
2017-11-11T05:46:28.308Z,80.88
2017-11-11T05:48:57.185Z,82.77
2017-11-11T05:51:26.057Z,81.57
2017-11-11T05:53:54.866Z,81.52
2017-11-11T05:56:23.609Z,80.26
2017-11-11T05:58:52.447Z,80.78
2017-11-11T06:01:21.984Z,80.54
2017-11-11T06:03:51.681Z,81.19
2017-11-11T06:06:20.502Z,79.33
2017-11-11T06:08:49.660Z,80.84
2017-11-11T06:11:19.249Z,81.38
2017-11-11T06:13:48.036Z,80.53
2017-11-11T06:16:17.578Z,81.19
2017-11-11T06:18:46.368Z,79.38
2017-11-11T06:21:15.113Z,80.09
2017-11-11T06:23:44.003Z,80.66
2017-11-11T06:26:12.709Z,79.48
2017-11-11T06:28:41.420Z,78.73
2017-11-11T06:31:10.127Z,79.57
2017-11-11T06:33:39.839Z,78.70
2017-11-11T06:36:09.458Z,80.58
2017-11-11T06:38:38.229Z,80.91
2017-11-11T06:41:07.417Z,80.44
2017-11-11T06:43:36.316Z,81.04
2017-11-11T06:46:05.075Z,81.59
2017-11-11T06:48:33.914Z,80.79
2017-11-11T06:51:02.638Z,78.26
2017-11-11T06:53:31.366Z,79.74
2017-11-11T06:56:01.150Z,78.80
2017-11-11T06:58:31.206Z,78.94
2017-11-11T07:01:01.065Z,77.83
2017-11-11T07:03:29.990Z,77.92
2017-11-11T07:05:59.482Z,79.37
2017-11-11T07:08:28.399Z,78.63
2017-11-11T07:10:57.305Z,78.85
2017-11-11T07:13:26.030Z,80.24
2017-11-11T07:15:59.338Z,79.60
2017-11-11T07:18:28.115Z,80.08
2017-11-11T07:20:57.717Z,78.60
2017-11-11T07:23:26.448Z,79.09
2017-11-11T07:25:55.386Z,76.85
2017-11-11T07:28:25.251Z,76.22
2017-11-11T07:30:54.333Z,77.94
2017-11-11T07:33:23.480Z,79.34
2017-11-11T07:35:53.092Z,79.14
2017-11-11T07:38:21.968Z,76.52
2017-11-11T07:40:50.808Z,76.19
2017-11-11T07:43:19.696Z,75.45
2017-11-11T07:45:48.662Z,73.19
2017-11-11T07:48:18.120Z,73.96
2017-11-11T07:50:46.867Z,74.34
2017-11-11T07:53:15.706Z,73.98
2017-11-11T07:55:44.622Z,74.86
2017-11-11T07:58:13.782Z,75.56
2017-11-11T08:00:43.677Z,75.38
2017-11-11T08:03:12.452Z,75.04
2017-11-11T08:05:41.221Z,75.25
2017-11-11T08:08:10.024Z,76.91
2017-11-11T08:10:38.742Z,75.19
2017-11-11T08:13:07.468Z,74.11
2017-11-11T08:15:36.277Z,75.52
2017-11-11T08:18:05.059Z,72.56
2017-11-11T08:20:33.849Z,72.88
2017-11-11T08:23:02.784Z,74.03
2017-11-11T08:25:32.650Z,72.93
2017-11-11T08:28:02.730Z,72.57
2017-11-11T08:30:32.881Z,73.75
2017-11-11T08:33:02.708Z,74.46
2017-11-11T08:35:31.958Z,72.28
2017-11-11T08:38:01.716Z,73.85
2017-11-11T08:40:30.540Z,71.38
2017-11-11T08:42:59.287Z,72.56
2017-11-11T08:45:28.055Z,74.73
2017-11-11T08:47:56.970Z,73.22
2017-11-11T08:50:26.221Z,73.80
2017-11-11T08:52:55.043Z,73.48
2017-11-11T08:55:24.947Z,72.66
2017-11-11T08:57:54.205Z,71.94
2017-11-11T09:00:26.198Z,73.71
2017-11-11T09:02:55.047Z,73.01
2017-11-11T09:05:23.851Z,74.21
2017-11-11T09:07:52.732Z,74.91
2017-11-11T09:10:21.478Z,73.97
2017-11-11T09:12:50.486Z,72.06
2017-11-11T09:15:19.401Z,71.15
2017-11-11T09:17:48.401Z,72.37
2017-11-11T09:20:17.989Z,72.06
2017-11-11T09:22:50.880Z,67.75
2017-11-11T09:25:19.701Z,70.99
2017-11-11T09:27:48.502Z,69.12
2017-11-11T09:30:17.284Z,69.68
2017-11-11T09:32:46.161Z,70.20
2017-11-11T09:35:15.904Z,68.90
2017-11-11T09:37:46.364Z,69.28
2017-11-11T19:38:27.738Z,84.75
2017-11-11T19:40:56.834Z,82.46
2017-11-11T19:43:26.615Z,80.50
2017-11-11T19:45:55.724Z,79.83
2017-11-11T19:48:25.240Z,80.25
2017-11-11T19:50:54.333Z,79.02
2017-11-11T19:53:25.029Z,80.54
2017-11-11T19:55:54.484Z,79.72
2017-11-11T19:58:24.978Z,79.67
2017-11-11T20:00:54.388Z,79.50
2017-11-11T20:03:23.164Z,79.26
2017-11-11T20:05:52.234Z,79.70
2017-11-11T20:08:21.009Z,79.37
2017-11-11T20:10:49.732Z,79.27
2017-11-11T20:13:19.379Z,78.27
2017-11-11T20:15:48.180Z,77.42
2017-11-11T20:18:16.963Z,76.89
2017-11-11T20:20:45.616Z,77.48
2017-11-11T20:23:14.407Z,80.69
2017-11-11T20:25:44.006Z,81.31
2017-11-11T20:28:12.746Z,81.30
2017-11-11T20:30:41.507Z,82.20
2017-11-11T20:33:11.076Z,82.33
2017-11-11T20:35:39.784Z,80.58
2017-11-11T20:38:08.669Z,79.37
2017-11-11T20:40:37.438Z,80.69
2017-11-11T20:43:06.407Z,80.39
2017-11-11T20:45:35.488Z,80.25
2017-11-11T20:48:04.396Z,79.89
2017-11-11T20:50:33.378Z,81.23
2017-11-11T20:53:03.761Z,79.99
2017-11-11T20:55:32.507Z,79.95
2017-11-11T20:58:01.337Z,81.23
2017-11-11T21:00:30.918Z,80.63
2017-11-11T21:02:59.948Z,80.71
2017-11-11T21:05:28.809Z,80.12
2017-11-11T21:07:58.154Z,78.55
2017-11-11T21:10:27.004Z,80.92
2017-11-11T21:12:56.585Z,81.02
2017-11-11T21:15:25.788Z,79.40
2017-11-11T21:17:55.087Z,79.18
2017-11-11T21:20:25.921Z,79.82
2017-11-11T21:22:55.418Z,78.87
2017-11-11T21:25:25.349Z,81.32
2017-11-11T21:27:56.102Z,80.60
2017-11-11T21:30:25.348Z,81.11
2017-11-11T21:32:56.494Z,81.24
2017-11-11T21:35:25.736Z,78.66
2017-11-11T21:37:55.410Z,79.48
2017-11-11T21:40:25.521Z,80.16
2017-11-11T21:42:55.166Z,80.03
2017-11-11T21:45:24.093Z,81.84
2017-11-11T21:47:53.133Z,80.48
2017-11-11T21:50:22.073Z,77.63
2017-11-11T21:52:50.867Z,80.69
2017-11-11T21:55:19.648Z,79.85
2017-11-11T21:57:48.541Z,81.50
2017-11-11T22:00:17.471Z,81.67
2017-11-11T22:02:46.991Z,80.25
2017-11-11T22:05:16.678Z,79.86
2017-11-11T22:07:45.728Z,79.42
2017-11-11T22:10:14.765Z,80.14
2017-11-11T22:12:43.875Z,80.46
2017-11-11T22:15:12.830Z,78.50
2017-11-11T22:17:41.717Z,79.93
2017-11-11T22:20:10.725Z,80.51
2017-11-11T22:22:39.949Z,80.09
2017-11-11T22:25:09.603Z,79.79
2017-11-11T22:27:38.576Z,80.90
2017-11-11T22:30:07.550Z,81.58
2017-11-11T22:32:37.411Z,80.79
2017-11-11T22:35:06.239Z,79.46
2017-11-11T22:37:35.985Z,81.22
2017-11-11T22:40:05.425Z,81.05
2017-11-11T22:42:34.249Z,80.90
2017-11-11T22:45:03.380Z,80.65
2017-11-11T22:47:32.199Z,81.06
2017-11-11T22:50:02.603Z,81.03
2017-11-11T22:52:31.412Z,79.79
2017-11-11T22:55:00.437Z,80.34
2017-11-11T22:57:29.297Z,80.68
2017-11-11T22:59:58.190Z,80.01
2017-11-11T23:02:27.646Z,79.94
2017-11-11T23:04:57.264Z,79.34
2017-11-11T23:07:26.184Z,81.61
2017-11-11T23:09:55.800Z,81.73
2017-11-11T23:12:25.548Z,80.44
2017-11-11T23:14:54.277Z,79.31
2017-11-11T23:17:24.045Z,80.17
2017-11-11T23:19:52.889Z,79.65
2017-11-11T23:22:21.975Z,79.72
2017-11-11T23:27:36.050Z,80.24
2017-11-11T23:30:05.630Z,81.66
2017-11-11T23:32:34.438Z,81.19
2017-11-11T23:35:03.215Z,80.27
2017-11-11T23:37:31.955Z,81.06
2017-11-11T23:40:00.796Z,82.89
2017-11-11T23:42:30.315Z,83.03
2017-11-11T23:44:59.476Z,81.97
2017-11-11T23:47:28.959Z,80.86
2017-11-11T23:49:58.879Z,81.07
2017-11-11T23:52:27.760Z,81.56
2017-11-11T23:54:56.939Z,80.91
2017-11-11T23:57:26.071Z,79.90
2017-11-11T23:59:55.693Z,78.03
